This is the latest recevied weather packets stored in our database for station/object KF3BH. If no packets are shown the sender has not sent any weather packets the latest 10 day(s).
| Time | Temp. | Humidity | Pressure | Rain* | Wind** | Luminosity | Snow |
|---|---|---|---|---|---|---|---|
| 1778269825 | 14.44° C | 59% | 1012.1 hPa | 0 mm | - | 67 W/m² | - |
| 1778269225 | 15° C | 56% | 1011.9 hPa | 0 mm | - | 56 W/m² | - |
| 1778263225 | 13.33° C | 62% | 1012.7 hPa | 0 mm | - | 318 W/m² | - |
| 1778257225 | 12.78° C | 58% | 1013.2 hPa | 0 mm | - | 301 W/m² | - |
| 1778253025 | 12.22° C | 64% | 1013.4 hPa | 0 mm | - | 366 W/m² | - |
| 1778252425 | 11.67° C | 72% | 1013.5 hPa | 0 mm | - | 838 W/m² | - |
| 1778248224 | 6.11° C | 95% | 1013.6 hPa | 0 mm | - | 652 W/m² | - |
| 1778245225 | 5° C | 95% | 1014.2 hPa | 0 mm | - | 35 W/m² | - |
| 1778236225 | 3.33° C | 94% | 1013.2 hPa | 0 mm | - | 12 W/m² | - |
| 1778230824 | 3.89° C | 94% | 1013.2 hPa | 0 mm | - | 0 W/m² | - |
| 1778226025 | 4.44° C | 93% | 1012.9 hPa | 0 mm | - | 0 W/m² | - |
| 1778222425 | 5° C | 92% | 1012.8 hPa | 0 mm | - | 0 W/m² | - |
| 1778208625 | 9.44° C | 73% | 1010.9 hPa | 0.51 mm | - | 0 W/m² | - |
| 1778206225 | 11.67° C | 53% | 1010.1 hPa | 0 mm | - | 0 W/m² | - |
| 1778205025 | 11.67° C | 54% | 1010 hPa | 0 mm | - | 0 W/m² | - |
| 1778203825 | 11.67° C | 50% | 1009.7 hPa | 0 mm | - | 0 W/m² | - |
| 1778202625 | 12.22° C | 50% | 1009.8 hPa | 0 mm | - | 0 W/m² | - |
| 1778197225 | 13.33° C | 45% | 1008.9 hPa | 0 mm | - | 5 W/m² | - |
| 1778187625 | 15° C | 39% | 1008.7 hPa | 0 mm | - | 83 W/m² | - |
| 1778176825 | 14.44° C | 40% | 1010.2 hPa | 0 mm | - | 223 W/m² | - |
| 1778172625 | 14.44° C | 42% | 1011.2 hPa | 0 mm | - | 274 W/m² | - |
| 1778172025 | 14.44° C | 45% | 1011.3 hPa | 0 mm | - | 784 W/m² | - |
| 1778169625 | 13.33° C | 48% | 1011.8 hPa | 0 mm | - | 814 W/m² | - |
| 1778164825 | 11.67° C | 53% | 1012.6 hPa | 0 mm | - | 626 W/m² | - |
| 1778157625 | 7.78° C | 77% | 1013.2 hPa | 0 mm | - | 362 W/m² | - |
* Rain latest hour (hover to see other rain measurements)
** Current wind speed in m/s (hover to see current wind gust speed)